地図

経路データ

SID SEASON NUMBER BASIN SUBBASIN NAME ISO_TIME NATURE LAT LON WMO_WIND WMO_PRES WMO_AGENCY TRACK_TYPE DIST2LAND LANDFALL IFLAG USA_AGENCY USA_ATCF_ID USA_LAT USA_LON USA_RECORD USA_STATUS USA_WIND USA_PRES USA_SSHS USA_R34_NE USA_R34_SE USA_R34_SW USA_R34_NW USA_R50_NE USA_R50_SE USA_R50_SW USA_R50_NW USA_R64_NE USA_R64_SE USA_R64_SW USA_R64_NW USA_POCI USA_ROCI USA_RMW USA_EYE TOKYO_LAT TOKYO_LON TOKYO_GRADE TOKYO_WIND TOKYO_PRES TOKYO_R50_DIR TOKYO_R50_LONG TOKYO_R50_SHORT TOKYO_R30_DIR TOKYO_R30_LONG TOKYO_R30_SHORT TOKYO_LAND CMA_LAT CMA_LON CMA_CAT CMA_WIND CMA_PRES HKO_LAT HKO_LON HKO_CAT HKO_WIND HKO_PRES NEWDELHI_LAT NEWDELHI_LON NEWDELHI_GRADE NEWDELHI_WIND NEWDELHI_PRES NEWDELHI_CI NEWDELHI_DP NEWDELHI_POCI REUNION_LAT REUNION_LON REUNION_TYPE REUNION_WIND REUNION_PRES REUNION_TNUM REUNION_CI REUNION_RMW REUNION_R34_NE REUNION_R34_SE REUNION_R34_SW REUNION_R34_NW REUNION_R50_NE REUNION_R50_SE REUNION_R50_SW REUNION_R50_NW REUNION_R64_NE REUNION_R64_SE REUNION_R64_SW REUNION_R64_NW BOM_LAT BOM_LON BOM_TYPE BOM_WIND BOM_PRES BOM_TNUM BOM_CI BOM_RMW BOM_R34_NE BOM_R34_SE BOM_R34_SW BOM_R34_NW BOM_R50_NE BOM_R50_SE BOM_R50_SW BOM_R50_NW BOM_R64_NE BOM_R64_SE BOM_R64_SW BOM_R64_NW BOM_ROCI BOM_POCI BOM_EYE BOM_POS_METHOD BOM_PRES_METHOD NADI_LAT NADI_LON NADI_CAT NADI_WIND NADI_PRES WELLINGTON_LAT WELLINGTON_LON WELLINGTON_WIND WELLINGTON_PRES DS824_LAT DS824_LON DS824_STAGE DS824_WIND DS824_PRES TD9636_LAT TD9636_LON TD9636_STAGE TD9636_WIND TD9636_PRES TD9635_LAT TD9635_LON TD9635_WIND TD9635_PRES TD9635_ROCI NEUMANN_LAT NEUMANN_LON NEUMANN_CLASS NEUMANN_WIND NEUMANN_PRES MLC_LAT MLC_LON MLC_CLASS MLC_WIND MLC_PRES USA_GUST BOM_GUST BOM_GUST_PER REUNION_GUST REUNION_GUST_PER USA_SEAHGT USA_SEARAD_NE USA_SEARAD_SE USA_SEARAD_SW USA_SEARAD_NW STORM_SPEED STORM_DIR
1866260N12333 1866 20 NA NA NOT_NAMED 1866-09-17 00:00:00 TS 12.1000 -26.7000 main 1037 1033 _____________O -1 12.1000 -26.7000 TD 30 4 317
1866260N12333 1866 20 NA NA NOT_NAMED 1866-09-17 03:00:00 TS 12.2575 -26.8499 main 1041 1041 _____________P -1 12.2575 -26.8499 TD 32 4 316
1866260N12333 1866 20 NA NA NOT_NAMED 1866-09-17 06:00:00 TS 12.4000 -27.0000 main 1059 1059 _____________O -1 12.4000 -27.0000 TS 35 4 313
1866260N12333 1866 20 NA NA NOT_NAMED 1866-09-17 09:00:00 TS 12.5275 -27.1501 main 1077 1074 _____________P -1 12.5275 -27.1501 TS 40 4 316
1866260N12333 1866 20 NA NA NOT_NAMED 1866-09-17 12:00:00 TS 12.7000 -27.3000 main 1082 1080 _____________O -1 12.7000 -27.3000 TS 45 5 327
1866260N12333 1866 20 NA NA NOT_NAMED 1866-09-17 15:00:00 TS 12.9850 -27.4500 main 1086 1086 _____________P -1 12.9850 -27.4500 TS 50 7 334
1866260N12333 1866 20 NA NA NOT_NAMED 1866-09-17 18:00:00 TS 13.3000 -27.6000 main 1101 1099 _____________O -1 13.3000 -27.6000 TS 55 6 333
1866260N12333 1866 20 NA NA NOT_NAMED 1866-09-17 21:00:00 TS 13.5575 -27.7500 main 1117 1116 _____________P -1 13.5575 -27.7500 TS 57 6 330
1866260N12333 1866 20 NA NA NOT_NAMED 1866-09-18 00:00:00 TS 13.8000 -27.9000 main 1125 1124 _____________O -1 13.8000 -27.9000 TS 60 6 329
1866260N12333 1866 20 NA NA NOT_NAMED 1866-09-18 03:00:00 TS 14.0500 -28.0500 main 1145 1143 _____________P -1 14.0500 -28.0500 TS 62 6 330
1866260N12333 1866 20 NA NA NOT_NAMED 1866-09-18 06:00:00 TS 14.3000 -28.2000 main 1153 1152 _____________O -1 14.3000 -28.2000 HU 65 6 332
1866260N12333 1866 20 NA NA NOT_NAMED 1866-09-18 09:00:00 TS 14.5499 -28.3201 main 1162 1162 _____________P -1 14.5499 -28.3201 HU 65 6 330
1866260N12333 1866 20 NA NA NOT_NAMED 1866-09-18 12:00:00 TS 14.8000 -28.5000 main 1183 1183 _____________O -1 14.8000 -28.5000 HU 65 7 316
1866260N12333 1866 20 NA NA NOT_NAMED 1866-09-18 15:00:00 TS 15.0501 -28.8200 main 1215 1215 _____________P -1 15.0501 -28.8200 HU 65 8 306
1866260N12333 1866 20 NA NA NOT_NAMED 1866-09-18 18:00:00 TS 15.3000 -29.2000 main 1258 1258 _____________O -1 15.3000 -29.2000 HU 65 9 306
1866260N12333 1866 20 NA NA NOT_NAMED 1866-09-18 21:00:00 TS 15.5499 -29.5426 main 1291 1291 _____________P -1 15.5499 -29.5426 HU 65 8 307
1866260N12333 1866 20 NA NA NOT_NAMED 1866-09-19 00:00:00 TS 15.8000 -29.9000 main 1336 1336 _____________O -1 15.8000 -29.9000 HU 65 9 304
1866260N12333 1866 20 NA NA NOT_NAMED 1866-09-19 03:00:00 TS 16.0500 -30.3075 main 1381 1381 _____________P -1 16.0500 -30.3075 HU 65 9 303
1866260N12333 1866 20 NA NA NOT_NAMED 1866-09-19 06:00:00 TS 16.3000 -30.7000 main 1425 1425 _____________O -1 16.3000 -30.7000 HU 65 8 305
1866260N12333 1866 20 NA NA NOT_NAMED 1866-09-19 09:00:00 TS 16.5122 -30.9855 main 1460 1460 _____________P -1 16.5122 -30.9855 HU 65 8 311
1866260N12333 1866 20 NA NA NOT_NAMED 1866-09-19 12:00:00 TS 16.8000 -31.3000 main 1495 1495 _____________O -1 16.8000 -31.3000 HU 65 11 315
1866260N12333 1866 20 NA NA NOT_NAMED 1866-09-19 15:00:00 TS 17.2626 -31.7698 main 1556 1556 _____________P -1 17.2626 -31.7698 HU 65 14 316
1866260N12333 1866 20 NA NA NOT_NAMED 1866-09-19 18:00:00 TS 17.8000 -32.3000 main 1617 1617 _____________O -1 17.8000 -32.3000 HU 65 14 317
1866260N12333 1866 20 NA NA NOT_NAMED 1866-09-19 21:00:00 TS 18.2999 -32.8003 main 1667 1667 _____________P -1 18.2999 -32.8003 HU 65 14 316
1866260N12333 1866 20 NA NA NOT_NAMED 1866-09-20 00:00:00 TS 18.8000 -33.3000 main 1708 1708 _____________O -1 18.8000 -33.3000 HU 65 14 317
1866260N12333 1866 20 NA NA NOT_NAMED 1866-09-20 03:00:00 TS 19.2999 -33.8003 main 1751 1751 _____________P -1 19.2999 -33.8003 HU 65 14 317
1866260N12333 1866 20 NA NA NOT_NAMED 1866-09-20 06:00:00 TS 19.8000 -34.3000 main 1796 1796 _____________O -1 19.8000 -34.3000 HU 65 14 316
1866260N12333 1866 20 NA NA NOT_NAMED 1866-09-20 09:00:00 TS 20.3152 -34.8448 main 1842 1842 _____________P -1 20.3152 -34.8448 HU 65 14 317
1866260N12333 1866 20 NA NA NOT_NAMED 1866-09-20 12:00:00 TS 20.8000 -35.3000 main 1890 1889 _____________O -1 20.8000 -35.3000 HU 65 11 324
1866260N12333 1866 20 NA NA NOT_NAMED 1866-09-20 15:00:00 TS 21.2222 -35.5530 main 1919 1918 _____________P -1 21.2222 -35.5530 HU 65 9 335
1866260N12333 1866 20 NA NA NOT_NAMED 1866-09-20 18:00:00 TS 21.6000 -35.7000 main 1928 1928 _____________O -1 21.6000 -35.7000 HU 65 8 334
1866260N12333 1866 20 NA NA NOT_NAMED 1866-09-20 21:00:00 TS 21.9648 -35.9470 main 1948 1948 _____________P -1 21.9648 -35.9470 HU 62 8 338
1866260N12333 1866 20 NA NA NOT_NAMED 1866-09-21 00:00:00 TS 22.3000 -36.0000 main 1957 1925 _____________O -1 22.3000 -36.0000 TS 60 7 24
1866260N12333 1866 20 NA NA NOT_NAMED 1866-09-21 03:00:00 TS 22.6078 -35.6404 main 1915 1863 _____________P -1 22.6078 -35.6404 TS 55 10 54
1866260N12333 1866 20 NA NA NOT_NAMED 1866-09-21 06:00:00 TS 22.9000 -35.1000 main 1863 1823 _____________O -1 22.9000 -35.1000 TS 50 11 57
1866260N12333 1866 20 NA NA NOT_NAMED 1866-09-21 09:00:00 TS 23.1999 -34.6498 main 1813 1773 _____________P -1 23.1999 -34.6498 TS 45 10 54
1866260N12333 1866 20 NA NA NOT_NAMED 1866-09-21 12:00:00 TS 23.5000 -34.2000 main 1773 1734 _____________O -1 23.5000 -34.2000 TS 40 10 54
1866260N12333 1866 20 NA NA NOT_NAMED 1866-09-21 15:00:00 TS 23.7999 -33.7498 main 1724 1686 _____________P -1 23.7999 -33.7498 TS 35 10 54
1866260N12333 1866 20 NA NA NOT_NAMED 1866-09-21 18:00:00 TS 24.1000 -33.3000 main 1686 1650 _____________O -1 24.1000 -33.3000 TD 30 10 54
1866260N12333 1866 20 NA NA NOT_NAMED 1866-09-21 21:00:00 TS 24.4003 -32.8504 main 1650 1598 _____________P -1 24.4003 -32.8504 TD 30 10 54
1866260N12333 1866 20 NA NA NOT_NAMED 1866-09-22 00:00:00 TS 24.7000 -32.4000 main 1598 _____________O -1 24.7000 -32.4000 TD 30 10 54

IBTrACS Databaseについて

本データベースは、米国NOAAが公開する1842年以降の世界の熱帯低気圧のベストトラックデータアーカイブInternational Best Track Archive for Climate Stewardship (IBTrACS)を、ウェブで閲覧しやすい形式に変換したものです。

最終更新日:2021-10-19